sensor_id;sensor_type;location;lat;lon;timestamp;P1;durP1;ratioP1;P2;durP2;ratioP2
8536;SDS011;4306;50.210;10.628;2023-04-23T00:02:19;9.65;;;3.08;;
8536;SDS011;4306;50.210;10.628;2023-04-23T00:04:48;5.20;;;3.08;;
8536;SDS011;4306;50.210;10.628;2023-04-23T00:07:16;8.07;;;3.22;;
8536;SDS011;4306;50.210;10.628;2023-04-23T00:09:45;4.10;;;3.03;;
8536;SDS011;4306;50.210;10.628;2023-04-23T00:12:12;4.32;;;2.78;;
8536;SDS011;4306;50.210;10.628;2023-04-23T00:14:40;3.83;;;2.55;;
8536;SDS011;4306;50.210;10.628;2023-04-23T00:17:08;5.63;;;3.30;;
8536;SDS011;4306;50.210;10.628;2023-04-23T00:19:35;4.95;;;3.10;;
8536;SDS011;4306;50.210;10.628;2023-04-23T00:22:02;4.65;;;2.80;;
8536;SDS011;4306;50.210;10.628;2023-04-23T00:24:29;6.25;;;2.95;;
8536;SDS011;4306;50.210;10.628;2023-04-23T00:26:58;5.90;;;3.08;;
8536;SDS011;4306;50.210;10.628;2023-04-23T00:29:25;4.60;;;2.92;;
8536;SDS011;4306;50.210;10.628;2023-04-23T00:31:51;4.95;;;3.00;;
8536;SDS011;4306;50.210;10.628;2023-04-23T00:34:20;3.80;;;2.80;;
8536;SDS011;4306;50.210;10.628;2023-04-23T00:36:47;4.55;;;2.70;;
8536;SDS011;4306;50.210;10.628;2023-04-23T00:39:14;6.53;;;3.10;;
8536;SDS011;4306;50.210;10.628;2023-04-23T00:41:41;5.75;;;2.92;;
8536;SDS011;4306;50.210;10.628;2023-04-23T00:44:09;3.85;;;2.70;;
8536;SDS011;4306;50.210;10.628;2023-04-23T00:46:36;5.78;;;2.70;;
8536;SDS011;4306;50.210;10.628;2023-04-23T00:49:03;4.03;;;2.80;;
8536;SDS011;4306;50.210;10.628;2023-04-23T00:51:31;4.43;;;3.00;;
8536;SDS011;4306;50.210;10.628;2023-04-23T00:53:58;4.60;;;2.63;;
8536;SDS011;4306;50.210;10.628;2023-04-23T00:56:25;5.10;;;2.50;;
8536;SDS011;4306;50.210;10.628;2023-04-23T00:58:53;3.53;;;2.42;;
8536;SDS011;4306;50.210;10.628;2023-04-23T01:01:21;6.38;;;2.83;;
8536;SDS011;4306;50.210;10.628;2023-04-23T01:03:50;4.97;;;2.63;;
8536;SDS011;4306;50.210;10.628;2023-04-23T01:06:18;5.22;;;2.67;;
8536;SDS011;4306;50.210;10.628;2023-04-23T01:08:46;4.32;;;2.45;;
8536;SDS011;4306;50.210;10.628;2023-04-23T01:11:13;4.75;;;2.17;;
8536;SDS011;4306;50.210;10.628;2023-04-23T01:13:42;3.75;;;2.33;;
8536;SDS011;4306;50.210;10.628;2023-04-23T01:16:09;3.78;;;1.92;;
8536;SDS011;4306;50.210;10.628;2023-04-23T01:18:36;5.55;;;2.72;;
8536;SDS011;4306;50.210;10.628;2023-04-23T01:21:05;5.95;;;2.58;;
8536;SDS011;4306;50.210;10.628;2023-04-23T01:23:33;3.33;;;2.35;;
8536;SDS011;4306;50.210;10.628;2023-04-23T01:26:00;3.80;;;2.25;;
8536;SDS011;4306;50.210;10.628;2023-04-23T01:28:27;6.65;;;3.10;;
8536;SDS011;4306;50.210;10.628;2023-04-23T01:30:55;6.05;;;2.45;;
8536;SDS011;4306;50.210;10.628;2023-04-23T01:33:23;4.32;;;2.17;;
8536;SDS011;4306;50.210;10.628;2023-04-23T01:35:51;4.43;;;2.35;;
8536;SDS011;4306;50.210;10.628;2023-04-23T01:38:19;6.30;;;2.78;;
8536;SDS011;4306;50.210;10.628;2023-04-23T01:40:50;5.78;;;2.72;;
8536;SDS011;4306;50.210;10.628;2023-04-23T01:43:16;4.22;;;2.53;;
8536;SDS011;4306;50.210;10.628;2023-04-23T01:45:43;6.22;;;2.45;;
8536;SDS011;4306;50.210;10.628;2023-04-23T01:48:11;3.90;;;2.75;;
8536;SDS011;4306;50.210;10.628;2023-04-23T01:50:38;5.32;;;2.75;;
8536;SDS011;4306;50.210;10.628;2023-04-23T01:53:06;4.75;;;2.47;;
8536;SDS011;4306;50.210;10.628;2023-04-23T01:55:33;4.30;;;2.25;;
8536;SDS011;4306;50.210;10.628;2023-04-23T01:58:04;4.05;;;2.30;;
8536;SDS011;4306;50.210;10.628;2023-04-23T02:00:31;4.82;;;2.70;;
8536;SDS011;4306;50.210;10.628;2023-04-23T02:02:58;5.13;;;2.30;;
8536;SDS011;4306;50.210;10.628;2023-04-23T02:05:25;5.35;;;2.42;;
8536;SDS011;4306;50.210;10.628;2023-04-23T02:07:55;4.53;;;2.22;;
8536;SDS011;4306;50.210;10.628;2023-04-23T02:10:22;4.00;;;2.50;;
8536;SDS011;4306;50.210;10.628;2023-04-23T02:12:49;3.92;;;2.30;;
8536;SDS011;4306;50.210;10.628;2023-04-23T02:15:18;4.30;;;2.45;;
8536;SDS011;4306;50.210;10.628;2023-04-23T02:17:45;4.78;;;2.60;;
8536;SDS011;4306;50.210;10.628;2023-04-23T02:20:15;5.00;;;2.58;;
8536;SDS011;4306;50.210;10.628;2023-04-23T02:22:42;5.05;;;2.67;;
8536;SDS011;4306;50.210;10.628;2023-04-23T02:25:10;4.70;;;2.67;;
8536;SDS011;4306;50.210;10.628;2023-04-23T02:27:39;4.85;;;2.65;;
8536;SDS011;4306;50.210;10.628;2023-04-23T02:30:07;7.97;;;3.00;;
8536;SDS011;4306;50.210;10.628;2023-04-23T02:32:37;4.13;;;2.67;;
8536;SDS011;4306;50.210;10.628;2023-04-23T02:35:04;6.75;;;3.10;;
8536;SDS011;4306;50.210;10.628;2023-04-23T02:37:32;4.82;;;3.20;;
8536;SDS011;4306;50.210;10.628;2023-04-23T02:39:59;21.20;;;12.68;;
8536;SDS011;4306;50.210;10.628;2023-04-23T02:42:25;34.90;;;17.58;;
8536;SDS011;4306;50.210;10.628;2023-04-23T02:44:52;15.20;;;9.27;;
8536;SDS011;4306;50.210;10.628;2023-04-23T02:47:19;5.82;;;3.92;;
8536;SDS011;4306;50.210;10.628;2023-04-23T02:49:47;8.48;;;4.15;;
8536;SDS011;4306;50.210;10.628;2023-04-23T02:52:14;9.02;;;4.70;;
8536;SDS011;4306;50.210;10.628;2023-04-23T02:54:41;6.05;;;3.40;;
8536;SDS011;4306;50.210;10.628;2023-04-23T02:57:08;5.88;;;4.55;;
8536;SDS011;4306;50.210;10.628;2023-04-23T02:59:38;5.57;;;3.70;;
8536;SDS011;4306;50.210;10.628;2023-04-23T03:02:05;8.20;;;4.80;;
8536;SDS011;4306;50.210;10.628;2023-04-23T03:04:32;6.32;;;3.35;;
8536;SDS011;4306;50.210;10.628;2023-04-23T03:07:00;6.18;;;3.38;;
8536;SDS011;4306;50.210;10.628;2023-04-23T03:09:27;4.88;;;3.40;;
8536;SDS011;4306;50.210;10.628;2023-04-23T03:11:54;8.45;;;4.60;;
8536;SDS011;4306;50.210;10.628;2023-04-23T03:14:21;7.03;;;4.07;;
8536;SDS011;4306;50.210;10.628;2023-04-23T03:16:48;6.47;;;3.35;;
8536;SDS011;4306;50.210;10.628;2023-04-23T03:19:15;6.18;;;4.00;;
8536;SDS011;4306;50.210;10.628;2023-04-23T03:21:42;7.25;;;4.05;;
8536;SDS011;4306;50.210;10.628;2023-04-23T03:24:11;5.00;;;3.63;;
8536;SDS011;4306;50.210;10.628;2023-04-23T03:26:38;6.68;;;4.35;;
8536;SDS011;4306;50.210;10.628;2023-04-23T03:29:05;6.80;;;4.53;;
8536;SDS011;4306;50.210;10.628;2023-04-23T03:31:32;7.43;;;4.05;;
8536;SDS011;4306;50.210;10.628;2023-04-23T03:33:59;7.45;;;3.90;;
8536;SDS011;4306;50.210;10.628;2023-04-23T03:36:26;6.70;;;4.07;;
8536;SDS011;4306;50.210;10.628;2023-04-23T03:38:53;7.32;;;4.18;;
8536;SDS011;4306;50.210;10.628;2023-04-23T03:41:21;7.28;;;5.40;;
8536;SDS011;4306;50.210;10.628;2023-04-23T03:43:48;8.43;;;6.55;;
8536;SDS011;4306;50.210;10.628;2023-04-23T03:46:14;6.10;;;4.60;;
8536;SDS011;4306;50.210;10.628;2023-04-23T03:48:41;7.88;;;4.40;;
8536;SDS011;4306;50.210;10.628;2023-04-23T03:51:08;6.53;;;4.50;;
8536;SDS011;4306;50.210;10.628;2023-04-23T03:53:35;6.32;;;4.70;;
8536;SDS011;4306;50.210;10.628;2023-04-23T03:56:02;6.35;;;4.55;;
8536;SDS011;4306;50.210;10.628;2023-04-23T03:58:30;6.55;;;4.78;;
8536;SDS011;4306;50.210;10.628;2023-04-23T04:00:57;7.60;;;4.38;;
8536;SDS011;4306;50.210;10.628;2023-04-23T04:03:24;7.35;;;4.90;;
8536;SDS011;4306;50.210;10.628;2023-04-23T04:05:51;5.95;;;4.53;;
8536;SDS011;4306;50.210;10.628;2023-04-23T04:08:18;8.45;;;4.43;;
8536;SDS011;4306;50.210;10.628;2023-04-23T04:10:46;7.03;;;5.32;;
8536;SDS011;4306;50.210;10.628;2023-04-23T04:13:13;6.07;;;4.22;;
8536;SDS011;4306;50.210;10.628;2023-04-23T04:15:41;6.97;;;4.65;;
8536;SDS011;4306;50.210;10.628;2023-04-23T04:18:08;6.18;;;4.72;;
8536;SDS011;4306;50.210;10.628;2023-04-23T04:20:35;6.05;;;4.95;;
8536;SDS011;4306;50.210;10.628;2023-04-23T04:23:02;6.30;;;4.95;;
8536;SDS011;4306;50.210;10.628;2023-04-23T04:25:29;6.28;;;4.70;;
8536;SDS011;4306;50.210;10.628;2023-04-23T04:27:55;8.20;;;4.95;;
8536;SDS011;4306;50.210;10.628;2023-04-23T04:30:22;6.95;;;4.78;;
8536;SDS011;4306;50.210;10.628;2023-04-23T04:32:52;6.78;;;4.75;;
8536;SDS011;4306;50.210;10.628;2023-04-23T04:35:19;6.40;;;5.05;;
8536;SDS011;4306;50.210;10.628;2023-04-23T04:37:46;8.73;;;4.88;;
8536;SDS011;4306;50.210;10.628;2023-04-23T04:40:13;7.43;;;5.22;;
8536;SDS011;4306;50.210;10.628;2023-04-23T04:42:40;6.18;;;5.00;;
8536;SDS011;4306;50.210;10.628;2023-04-23T04:45:07;7.75;;;5.35;;
8536;SDS011;4306;50.210;10.628;2023-04-23T04:47:35;5.57;;;4.68;;
8536;SDS011;4306;50.210;10.628;2023-04-23T04:50:03;7.18;;;5.15;;
8536;SDS011;4306;50.210;10.628;2023-04-23T04:52:30;6.45;;;5.07;;
8536;SDS011;4306;50.210;10.628;2023-04-23T04:54:57;7.93;;;5.03;;
8536;SDS011;4306;50.210;10.628;2023-04-23T04:57:24;6.32;;;4.72;;
8536;SDS011;4306;50.210;10.628;2023-04-23T04:59:51;7.43;;;4.93;;
8536;SDS011;4306;50.210;10.628;2023-04-23T05:02:19;7.05;;;5.03;;
8536;SDS011;4306;50.210;10.628;2023-04-23T05:04:47;6.13;;;4.38;;
8536;SDS011;4306;50.210;10.628;2023-04-23T05:07:15;6.15;;;4.28;;
8536;SDS011;4306;50.210;10.628;2023-04-23T05:09:44;5.22;;;3.83;;
8536;SDS011;4306;50.210;10.628;2023-04-23T05:12:11;4.97;;;3.90;;
8536;SDS011;4306;50.210;10.628;2023-04-23T05:14:37;4.93;;;3.55;;
8536;SDS011;4306;50.210;10.628;2023-04-23T05:17:05;5.13;;;3.60;;
8536;SDS011;4306;50.210;10.628;2023-04-23T05:19:32;5.30;;;3.72;;
8536;SDS011;4306;50.210;10.628;2023-04-23T05:21:59;6.47;;;4.32;;
8536;SDS011;4306;50.210;10.628;2023-04-23T05:24:29;5.25;;;3.85;;
8536;SDS011;4306;50.210;10.628;2023-04-23T05:26:56;5.00;;;4.13;;
8536;SDS011;4306;50.210;10.628;2023-04-23T05:29:23;6.32;;;4.03;;
8536;SDS011;4306;50.210;10.628;2023-04-23T05:31:50;4.85;;;3.85;;
8536;SDS011;4306;50.210;10.628;2023-04-23T05:34:16;6.57;;;4.78;;
8536;SDS011;4306;50.210;10.628;2023-04-23T05:36:43;6.65;;;4.63;;
8536;SDS011;4306;50.210;10.628;2023-04-23T05:39:10;8.65;;;3.90;;
8536;SDS011;4306;50.210;10.628;2023-04-23T05:41:38;4.78;;;3.63;;
8536;SDS011;4306;50.210;10.628;2023-04-23T05:44:05;5.07;;;3.60;;
8536;SDS011;4306;50.210;10.628;2023-04-23T05:46:33;4.13;;;3.08;;
8536;SDS011;4306;50.210;10.628;2023-04-23T05:49:00;4.53;;;3.50;;
8536;SDS011;4306;50.210;10.628;2023-04-23T05:51:27;4.65;;;3.47;;
8536;SDS011;4306;50.210;10.628;2023-04-23T05:53:54;3.97;;;3.10;;
8536;SDS011;4306;50.210;10.628;2023-04-23T05:56:21;5.38;;;3.67;;
8536;SDS011;4306;50.210;10.628;2023-04-23T05:58:49;4.50;;;3.25;;
8536;SDS011;4306;50.210;10.628;2023-04-23T06:01:16;3.88;;;2.97;;
8536;SDS011;4306;50.210;10.628;2023-04-23T06:03:43;4.15;;;2.95;;
8536;SDS011;4306;50.210;10.628;2023-04-23T06:06:10;4.65;;;3.22;;
8536;SDS011;4306;50.210;10.628;2023-04-23T06:08:37;3.75;;;2.58;;
8536;SDS011;4306;50.210;10.628;2023-04-23T06:11:04;3.45;;;2.53;;
8536;SDS011;4306;50.210;10.628;2023-04-23T06:13:32;5.10;;;2.78;;
8536;SDS011;4306;50.210;10.628;2023-04-23T06:16:05;3.75;;;2.85;;
8536;SDS011;4306;50.210;10.628;2023-04-23T06:18:34;4.50;;;3.03;;
8536;SDS011;4306;50.210;10.628;2023-04-23T06:21:02;4.35;;;2.65;;
8536;SDS011;4306;50.210;10.628;2023-04-23T06:23:30;3.50;;;2.75;;
8536;SDS011;4306;50.210;10.628;2023-04-23T06:25:57;4.05;;;2.85;;
8536;SDS011;4306;50.210;10.628;2023-04-23T06:28:24;3.78;;;2.50;;
8536;SDS011;4306;50.210;10.628;2023-04-23T06:30:52;4.53;;;2.80;;
8536;SDS011;4306;50.210;10.628;2023-04-23T06:33:20;3.92;;;2.53;;
8536;SDS011;4306;50.210;10.628;2023-04-23T06:35:48;4.65;;;2.95;;
8536;SDS011;4306;50.210;10.628;2023-04-23T06:38:15;5.13;;;2.88;;
8536;SDS011;4306;50.210;10.628;2023-04-23T06:40:42;6.13;;;3.40;;
8536;SDS011;4306;50.210;10.628;2023-04-23T06:43:10;3.58;;;2.55;;
8536;SDS011;4306;50.210;10.628;2023-04-23T06:45:36;5.82;;;3.13;;
8536;SDS011;4306;50.210;10.628;2023-04-23T06:48:04;5.00;;;2.90;;
8536;SDS011;4306;50.210;10.628;2023-04-23T06:50:34;4.70;;;2.90;;
8536;SDS011;4306;50.210;10.628;2023-04-23T06:53:04;4.97;;;3.10;;
8536;SDS011;4306;50.210;10.628;2023-04-23T06:55:31;4.40;;;2.72;;
8536;SDS011;4306;50.210;10.628;2023-04-23T06:57:58;3.65;;;2.50;;
8536;SDS011;4306;50.210;10.628;2023-04-23T07:00:25;4.43;;;2.92;;
8536;SDS011;4306;50.210;10.628;2023-04-23T07:02:52;3.63;;;2.60;;
8536;SDS011;4306;50.210;10.628;2023-04-23T07:05:18;3.88;;;3.10;;
8536;SDS011;4306;50.210;10.628;2023-04-23T07:07:47;5.60;;;2.95;;
8536;SDS011;4306;50.210;10.628;2023-04-23T07:10:13;3.63;;;2.70;;
8536;SDS011;4306;50.210;10.628;2023-04-23T07:12:40;4.05;;;2.50;;
8536;SDS011;4306;50.210;10.628;2023-04-23T07:15:07;3.50;;;2.47;;
8536;SDS011;4306;50.210;10.628;2023-04-23T07:17:35;3.50;;;2.35;;
8536;SDS011;4306;50.210;10.628;2023-04-23T07:20:02;3.78;;;2.90;;
8536;SDS011;4306;50.210;10.628;2023-04-23T07:22:30;4.13;;;2.90;;
8536;SDS011;4306;50.210;10.628;2023-04-23T07:24:59;5.13;;;3.40;;
8536;SDS011;4306;50.210;10.628;2023-04-23T07:27:26;4.55;;;3.13;;
8536;SDS011;4306;50.210;10.628;2023-04-23T07:29:53;3.72;;;2.55;;
8536;SDS011;4306;50.210;10.628;2023-04-23T07:32:19;3.72;;;2.75;;
8536;SDS011;4306;50.210;10.628;2023-04-23T07:34:47;3.80;;;2.70;;
8536;SDS011;4306;50.210;10.628;2023-04-23T07:37:15;3.95;;;2.83;;
8536;SDS011;4306;50.210;10.628;2023-04-23T07:39:42;4.53;;;3.20;;
8536;SDS011;4306;50.210;10.628;2023-04-23T07:42:10;4.00;;;2.70;;
8536;SDS011;4306;50.210;10.628;2023-04-23T07:44:38;3.88;;;2.90;;
8536;SDS011;4306;50.210;10.628;2023-04-23T07:47:05;4.82;;;2.58;;
8536;SDS011;4306;50.210;10.628;2023-04-23T07:49:32;3.97;;;2.88;;
8536;SDS011;4306;50.210;10.628;2023-04-23T07:51:59;5.55;;;2.90;;
8536;SDS011;4306;50.210;10.628;2023-04-23T07:54:26;5.18;;;3.25;;
8536;SDS011;4306;50.210;10.628;2023-04-23T07:56:52;5.13;;;2.95;;
8536;SDS011;4306;50.210;10.628;2023-04-23T07:59:22;3.95;;;2.92;;
8536;SDS011;4306;50.210;10.628;2023-04-23T08:01:49;3.42;;;2.67;;
8536;SDS011;4306;50.210;10.628;2023-04-23T08:04:16;4.82;;;3.03;;
8536;SDS011;4306;50.210;10.628;2023-04-23T08:06:43;3.85;;;2.75;;
8536;SDS011;4306;50.210;10.628;2023-04-23T08:09:10;4.55;;;3.60;;
8536;SDS011;4306;50.210;10.628;2023-04-23T08:11:37;4.28;;;2.70;;
8536;SDS011;4306;50.210;10.628;2023-04-23T08:14:04;3.20;;;2.60;;
8536;SDS011;4306;50.210;10.628;2023-04-23T08:16:33;5.30;;;3.00;;
8536;SDS011;4306;50.210;10.628;2023-04-23T08:19:00;5.20;;;3.10;;
8536;SDS011;4306;50.210;10.628;2023-04-23T08:21:29;4.63;;;2.83;;
8536;SDS011;4306;50.210;10.628;2023-04-23T08:23:56;4.97;;;2.63;;
8536;SDS011;4306;50.210;10.628;2023-04-23T08:26:23;3.45;;;2.47;;
8536;SDS011;4306;50.210;10.628;2023-04-23T08:28:50;3.85;;;2.60;;
8536;SDS011;4306;50.210;10.628;2023-04-23T08:31:18;4.95;;;2.70;;
8536;SDS011;4306;50.210;10.628;2023-04-23T08:33:47;4.97;;;3.45;;
8536;SDS011;4306;50.210;10.628;2023-04-23T08:36:14;4.90;;;3.15;;
8536;SDS011;4306;50.210;10.628;2023-04-23T08:38:41;3.42;;;2.30;;
8536;SDS011;4306;50.210;10.628;2023-04-23T08:41:09;3.60;;;2.17;;
8536;SDS011;4306;50.210;10.628;2023-04-23T08:43:41;3.75;;;2.15;;
8536;SDS011;4306;50.210;10.628;2023-04-23T08:46:17;3.83;;;2.10;;
8536;SDS011;4306;50.210;10.628;2023-04-23T08:48:44;4.65;;;2.53;;
8536;SDS011;4306;50.210;10.628;2023-04-23T08:51:15;3.38;;;2.22;;
8536;SDS011;4306;50.210;10.628;2023-04-23T08:53:43;3.42;;;2.03;;
8536;SDS011;4306;50.210;10.628;2023-04-23T08:56:13;2.72;;;1.83;;
8536;SDS011;4306;50.210;10.628;2023-04-23T08:58:40;4.25;;;2.25;;
8536;SDS011;4306;50.210;10.628;2023-04-23T09:01:08;3.45;;;2.28;;
8536;SDS011;4306;50.210;10.628;2023-04-23T09:03:35;3.90;;;2.45;;
8536;SDS011;4306;50.210;10.628;2023-04-23T09:06:05;3.65;;;2.53;;
8536;SDS011;4306;50.210;10.628;2023-04-23T09:08:32;3.65;;;2.30;;
8536;SDS011;4306;50.210;10.628;2023-04-23T09:11:00;3.30;;;2.42;;
8536;SDS011;4306;50.210;10.628;2023-04-23T09:13:28;3.42;;;2.40;;
8536;SDS011;4306;50.210;10.628;2023-04-23T09:15:56;3.63;;;2.58;;
8536;SDS011;4306;50.210;10.628;2023-04-23T09:18:23;4.38;;;3.20;;
8536;SDS011;4306;50.210;10.628;2023-04-23T09:20:50;8.68;;;5.93;;
8536;SDS011;4306;50.210;10.628;2023-04-23T09:23:21;4.72;;;2.80;;
8536;SDS011;4306;50.210;10.628;2023-04-23T09:25:48;3.70;;;2.45;;
8536;SDS011;4306;50.210;10.628;2023-04-23T09:28:16;3.10;;;2.10;;
8536;SDS011;4306;50.210;10.628;2023-04-23T09:30:43;4.00;;;2.20;;
8536;SDS011;4306;50.210;10.628;2023-04-23T09:33:10;4.88;;;2.10;;
8536;SDS011;4306;50.210;10.628;2023-04-23T09:35:37;4.07;;;2.45;;
8536;SDS011;4306;50.210;10.628;2023-04-23T09:38:06;4.05;;;2.70;;
8536;SDS011;4306;50.210;10.628;2023-04-23T09:40:36;4.88;;;2.47;;
8536;SDS011;4306;50.210;10.628;2023-04-23T09:43:03;4.65;;;2.70;;
8536;SDS011;4306;50.210;10.628;2023-04-23T09:45:31;3.00;;;1.95;;
8536;SDS011;4306;50.210;10.628;2023-04-23T09:47:59;2.67;;;1.90;;
8536;SDS011;4306;50.210;10.628;2023-04-23T09:50:32;2.95;;;1.80;;
8536;SDS011;4306;50.210;10.628;2023-04-23T09:53:01;4.72;;;2.42;;
8536;SDS011;4306;50.210;10.628;2023-04-23T09:55:28;3.20;;;1.92;;
8536;SDS011;4306;50.210;10.628;2023-04-23T09:58:00;2.33;;;1.85;;
8536;SDS011;4306;50.210;10.628;2023-04-23T10:00:31;4.03;;;2.00;;
8536;SDS011;4306;50.210;10.628;2023-04-23T10:03:00;2.90;;;2.10;;
8536;SDS011;4306;50.210;10.628;2023-04-23T10:05:27;3.50;;;1.95;;
8536;SDS011;4306;50.210;10.628;2023-04-23T10:07:54;1.90;;;1.30;;
8536;SDS011;4306;50.210;10.628;2023-04-23T10:10:22;2.92;;;1.52;;
8536;SDS011;4306;50.210;10.628;2023-04-23T10:12:50;3.47;;;1.77;;
8536;SDS011;4306;50.210;10.628;2023-04-23T10:15:19;3.78;;;1.70;;
8536;SDS011;4306;50.210;10.628;2023-04-23T10:17:47;2.67;;;1.80;;
8536;SDS011;4306;50.210;10.628;2023-04-23T10:20:15;2.95;;;2.13;;
8536;SDS011;4306;50.210;10.628;2023-04-23T10:22:43;2.83;;;1.60;;
8536;SDS011;4306;50.210;10.628;2023-04-23T10:25:11;2.40;;;1.58;;
8536;SDS011;4306;50.210;10.628;2023-04-23T10:27:39;2.22;;;1.50;;
8536;SDS011;4306;50.210;10.628;2023-04-23T10:30:08;3.00;;;1.90;;
8536;SDS011;4306;50.210;10.628;2023-04-23T10:32:38;2.83;;;1.50;;
8536;SDS011;4306;50.210;10.628;2023-04-23T10:35:06;2.30;;;1.50;;
8536;SDS011;4306;50.210;10.628;2023-04-23T10:37:34;3.08;;;1.63;;
8536;SDS011;4306;50.210;10.628;2023-04-23T10:40:04;2.38;;;1.52;;
8536;SDS011;4306;50.210;10.628;2023-04-23T10:42:35;2.17;;;1.52;;
8536;SDS011;4306;50.210;10.628;2023-04-23T10:45:08;4.38;;;1.60;;
8536;SDS011;4306;50.210;10.628;2023-04-23T10:47:42;3.30;;;1.88;;
8536;SDS011;4306;50.210;10.628;2023-04-23T10:50:22;3.80;;;1.73;;
8536;SDS011;4306;50.210;10.628;2023-04-23T10:52:50;2.58;;;1.58;;
8536;SDS011;4306;50.210;10.628;2023-04-23T10:55:18;3.25;;;2.10;;
8536;SDS011;4306;50.210;10.628;2023-04-23T10:58:00;3.88;;;1.92;;
8536;SDS011;4306;50.210;10.628;2023-04-23T11:00:28;3.40;;;1.70;;
8536;SDS011;4306;50.210;10.628;2023-04-23T11:03:29;4.07;;;1.80;;
8536;SDS011;4306;50.210;10.628;2023-04-23T11:05:57;3.33;;;1.45;;
8536;SDS011;4306;50.210;10.628;2023-04-23T11:08:27;2.97;;;1.90;;
8536;SDS011;4306;50.210;10.628;2023-04-23T11:10:57;2.80;;;1.77;;
8536;SDS011;4306;50.210;10.628;2023-04-23T11:13:25;2.80;;;1.52;;
8536;SDS011;4306;50.210;10.628;2023-04-23T11:16:12;2.63;;;1.40;;
8536;SDS011;4306;50.210;10.628;2023-04-23T11:18:57;4.07;;;1.70;;
8536;SDS011;4306;50.210;10.628;2023-04-23T11:24:22;3.22;;;1.30;;
8536;SDS011;4306;50.210;10.628;2023-04-23T11:26:52;2.45;;;1.25;;
8536;SDS011;4306;50.210;10.628;2023-04-23T11:29:20;4.07;;;1.45;;
8536;SDS011;4306;50.210;10.628;2023-04-23T11:31:48;3.70;;;1.40;;
8536;SDS011;4306;50.210;10.628;2023-04-23T11:34:16;2.20;;;1.40;;
8536;SDS011;4306;50.210;10.628;2023-04-23T11:36:44;2.17;;;1.30;;
8536;SDS011;4306;50.210;10.628;2023-04-23T11:39:12;2.80;;;1.42;;
8536;SDS011;4306;50.210;10.628;2023-04-23T11:41:39;1.63;;;1.13;;
8536;SDS011;4306;50.210;10.628;2023-04-23T11:44:06;6.03;;;1.52;;
8536;SDS011;4306;50.210;10.628;2023-04-23T11:46:33;1.60;;;1.30;;
8536;SDS011;4306;50.210;10.628;2023-04-23T11:49:00;2.17;;;1.25;;
8536;SDS011;4306;50.210;10.628;2023-04-23T11:51:29;1.77;;;1.33;;
8536;SDS011;4306;50.210;10.628;2023-04-23T11:54:01;3.10;;;1.30;;
8536;SDS011;4306;50.210;10.628;2023-04-23T11:56:29;2.70;;;1.25;;
8536;SDS011;4306;50.210;10.628;2023-04-23T11:58:59;2.63;;;1.20;;
8536;SDS011;4306;50.210;10.628;2023-04-23T12:01:37;2.00;;;0.90;;
8536;SDS011;4306;50.210;10.628;2023-04-23T12:04:08;2.08;;;0.98;;
8536;SDS011;4306;50.210;10.628;2023-04-23T12:06:41;2.88;;;1.23;;
8536;SDS011;4306;50.210;10.628;2023-04-23T12:09:09;1.50;;;1.10;;
8536;SDS011;4306;50.210;10.628;2023-04-23T12:11:37;1.38;;;1.13;;
8536;SDS011;4306;50.210;10.628;2023-04-23T12:14:04;3.03;;;1.42;;
8536;SDS011;4306;50.210;10.628;2023-04-23T12:16:33;1.67;;;1.30;;
8536;SDS011;4306;50.210;10.628;2023-04-23T12:19:03;2.30;;;1.30;;
8536;SDS011;4306;50.210;10.628;2023-04-23T12:21:33;1.50;;;1.02;;
8536;SDS011;4306;50.210;10.628;2023-04-23T12:24:03;1.83;;;1.00;;
8536;SDS011;4306;50.210;10.628;2023-04-23T12:26:30;1.13;;;0.88;;
8536;SDS011;4306;50.210;10.628;2023-04-23T12:28:58;1.90;;;1.10;;
8536;SDS011;4306;50.210;10.628;2023-04-23T12:31:26;4.10;;;1.00;;
8536;SDS011;4306;50.210;10.628;2023-04-23T12:33:57;1.73;;;1.17;;
8536;SDS011;4306;50.210;10.628;2023-04-23T12:36:27;2.30;;;1.27;;
8536;SDS011;4306;50.210;10.628;2023-04-23T12:41:49;1.50;;;1.13;;
8536;SDS011;4306;50.210;10.628;2023-04-23T12:44:17;1.65;;;1.20;;
8536;SDS011;4306;50.210;10.628;2023-04-23T12:46:44;1.60;;;0.93;;
8536;SDS011;4306;50.210;10.628;2023-04-23T12:49:15;2.22;;;1.20;;
8536;SDS011;4306;50.210;10.628;2023-04-23T12:51:42;2.17;;;1.10;;
8536;SDS011;4306;50.210;10.628;2023-04-23T12:54:10;3.05;;;1.33;;
8536;SDS011;4306;50.210;10.628;2023-04-23T12:56:38;2.17;;;1.25;;
8536;SDS011;4306;50.210;10.628;2023-04-23T12:59:05;1.60;;;1.13;;
8536;SDS011;4306;50.210;10.628;2023-04-23T13:01:32;2.05;;;1.30;;
8536;SDS011;4306;50.210;10.628;2023-04-23T13:03:59;2.42;;;1.05;;
8536;SDS011;4306;50.210;10.628;2023-04-23T13:06:26;1.67;;;1.20;;
8536;SDS011;4306;50.210;10.628;2023-04-23T13:08:53;1.10;;;0.93;;
8536;SDS011;4306;50.210;10.628;2023-04-23T13:11:21;1.85;;;1.23;;
8536;SDS011;4306;50.210;10.628;2023-04-23T13:13:49;1.80;;;1.08;;
8536;SDS011;4306;50.210;10.628;2023-04-23T13:16:17;1.15;;;0.90;;
8536;SDS011;4306;50.210;10.628;2023-04-23T13:18:44;1.73;;;1.00;;
8536;SDS011;4306;50.210;10.628;2023-04-23T13:21:11;1.77;;;1.00;;
8536;SDS011;4306;50.210;10.628;2023-04-23T13:23:38;1.85;;;1.10;;
8536;SDS011;4306;50.210;10.628;2023-04-23T13:26:04;2.45;;;1.50;;
8536;SDS011;4306;50.210;10.628;2023-04-23T13:28:32;3.35;;;1.00;;
8536;SDS011;4306;50.210;10.628;2023-04-23T13:31:02;1.50;;;1.00;;
8536;SDS011;4306;50.210;10.628;2023-04-23T13:33:29;1.55;;;0.95;;
8536;SDS011;4306;50.210;10.628;2023-04-23T13:35:56;1.80;;;1.02;;
8536;SDS011;4306;50.210;10.628;2023-04-23T13:38:23;2.88;;;1.20;;
8536;SDS011;4306;50.210;10.628;2023-04-23T13:40:51;4.07;;;1.30;;
8536;SDS011;4306;50.210;10.628;2023-04-23T13:43:18;2.30;;;1.20;;
8536;SDS011;4306;50.210;10.628;2023-04-23T13:45:45;2.10;;;0.90;;
8536;SDS011;4306;50.210;10.628;2023-04-23T13:48:14;1.50;;;1.33;;
8536;SDS011;4306;50.210;10.628;2023-04-23T13:50:41;1.60;;;0.98;;
8536;SDS011;4306;50.210;10.628;2023-04-23T13:53:11;2.22;;;1.20;;
8536;SDS011;4306;50.210;10.628;2023-04-23T13:55:38;1.33;;;0.90;;
8536;SDS011;4306;50.210;10.628;2023-04-23T13:58:05;1.95;;;1.08;;
8536;SDS011;4306;50.210;10.628;2023-04-23T14:00:32;1.60;;;0.93;;
8536;SDS011;4306;50.210;10.628;2023-04-23T14:02:59;2.80;;;1.15;;
8536;SDS011;4306;50.210;10.628;2023-04-23T14:05:27;1.55;;;0.85;;
8536;SDS011;4306;50.210;10.628;2023-04-23T14:07:55;1.48;;;1.00;;
8536;SDS011;4306;50.210;10.628;2023-04-23T14:10:22;1.38;;;0.88;;
8536;SDS011;4306;50.210;10.628;2023-04-23T14:12:49;1.77;;;0.95;;
8536;SDS011;4306;50.210;10.628;2023-04-23T14:15:17;1.73;;;0.95;;
8536;SDS011;4306;50.210;10.628;2023-04-23T14:17:44;1.40;;;0.80;;
8536;SDS011;4306;50.210;10.628;2023-04-23T14:20:12;2.83;;;1.40;;
8536;SDS011;4306;50.210;10.628;2023-04-23T14:22:41;1.98;;;1.25;;
8536;SDS011;4306;50.210;10.628;2023-04-23T14:25:08;1.75;;;1.05;;
8536;SDS011;4306;50.210;10.628;2023-04-23T14:27:40;1.50;;;0.90;;
8536;SDS011;4306;50.210;10.628;2023-04-23T14:30:13;1.92;;;1.13;;
8536;SDS011;4306;50.210;10.628;2023-04-23T14:32:41;1.60;;;0.90;;
8536;SDS011;4306;50.210;10.628;2023-04-23T14:35:08;2.28;;;1.00;;
8536;SDS011;4306;50.210;10.628;2023-04-23T14:37:35;0.90;;;0.77;;
8536;SDS011;4306;50.210;10.628;2023-04-23T14:40:03;1.42;;;1.00;;
8536;SDS011;4306;50.210;10.628;2023-04-23T14:42:31;1.70;;;1.10;;
8536;SDS011;4306;50.210;10.628;2023-04-23T14:44:58;2.28;;;0.90;;
8536;SDS011;4306;50.210;10.628;2023-04-23T14:47:27;2.30;;;0.82;;
8536;SDS011;4306;50.210;10.628;2023-04-23T14:49:54;1.20;;;0.90;;
8536;SDS011;4306;50.210;10.628;2023-04-23T14:52:21;1.90;;;1.10;;
8536;SDS011;4306;50.210;10.628;2023-04-23T14:54:48;1.40;;;0.93;;
8536;SDS011;4306;50.210;10.628;2023-04-23T14:57:18;1.17;;;0.90;;
8536;SDS011;4306;50.210;10.628;2023-04-23T14:59:45;1.80;;;0.93;;
8536;SDS011;4306;50.210;10.628;2023-04-23T15:02:12;2.03;;;0.70;;
8536;SDS011;4306;50.210;10.628;2023-04-23T15:04:38;1.65;;;1.00;;
8536;SDS011;4306;50.210;10.628;2023-04-23T15:07:05;1.98;;;1.10;;
8536;SDS011;4306;50.210;10.628;2023-04-23T15:09:32;1.42;;;0.73;;
8536;SDS011;4306;50.210;10.628;2023-04-23T15:11:59;2.50;;;1.10;;